createdAt,value
2022-10-31T00:01:36.831Z,28.60
2022-10-31T00:04:05.889Z,36.67
2022-10-31T00:06:34.008Z,33.70
2022-10-31T00:09:04.191Z,33.77
2022-10-31T00:11:32.404Z,27.57
2022-10-31T00:14:00.752Z,31.30
2022-10-31T00:16:29.252Z,25.30
2022-10-31T00:18:59.406Z,29.10
2022-10-31T00:21:28.804Z,28.43
2022-10-31T00:24:00.088Z,29.47
2022-10-31T00:26:32.418Z,23.33
2022-10-31T00:29:01.913Z,33.97
2022-10-31T00:31:32.176Z,27.27
2022-10-31T00:34:00.954Z,26.47
2022-10-31T00:36:29.071Z,27.03
2022-10-31T00:38:59.345Z,24.17
2022-10-31T00:41:27.474Z,22.70
2022-10-31T00:43:54.630Z,22.90
2022-10-31T00:46:27.291Z,27.27
2022-10-31T00:48:55.501Z,26.80
2022-10-31T00:51:22.825Z,20.60
2022-10-31T00:53:50.109Z,22.23
2022-10-31T00:56:18.285Z,20.60
2022-10-31T00:58:46.004Z,23.57
2022-10-31T01:01:13.370Z,22.53
2022-10-31T01:03:43.369Z,20.53
2022-10-31T01:06:15.623Z,24.63
2022-10-31T01:08:44.487Z,20.73
2022-10-31T01:11:18.905Z,22.00
2022-10-31T01:13:47.488Z,26.43
2022-10-31T01:16:20.267Z,26.30
2022-10-31T01:18:48.738Z,26.33
2022-10-31T01:21:22.110Z,24.50
2022-10-31T01:23:52.137Z,27.30
2022-10-31T01:26:28.633Z,24.83
2022-10-31T01:29:02.908Z,24.47
2022-10-31T01:31:35.804Z,22.80
2022-10-31T01:34:06.234Z,20.53
2022-10-31T01:36:38.823Z,23.13
2022-10-31T01:39:08.935Z,22.03
2022-10-31T01:41:45.299Z,23.53
2022-10-31T01:44:16.531Z,23.40
2022-10-31T01:46:56.497Z,25.07
2022-10-31T01:49:33.596Z,23.03
2022-10-31T01:52:26.371Z,22.73
2022-10-31T01:55:00.989Z,24.47
2022-10-31T01:57:32.609Z,21.63
2022-10-31T02:00:05.961Z,24.23
2022-10-31T02:02:41.822Z,21.73
2022-10-31T02:05:15.492Z,24.67
2022-10-31T02:07:58.450Z,19.93
2022-10-31T02:10:33.821Z,22.83
2022-10-31T02:13:06.082Z,19.53
2022-10-31T02:15:39.320Z,18.63
2022-10-31T02:18:07.830Z,21.00
2022-10-31T02:21:02.979Z,19.53
2022-10-31T02:23:49.557Z,17.60
2022-10-31T02:26:43.644Z,18.40
2022-10-31T02:29:42.518Z,19.50
2022-10-31T02:32:28.316Z,19.23
2022-10-31T02:35:19.885Z,22.43
2022-10-31T02:38:08.562Z,20.57
2022-10-31T02:41:01.043Z,19.33
2022-10-31T02:44:01.925Z,18.50
2022-10-31T02:46:51.185Z,19.00
2022-10-31T02:49:45.534Z,19.37
2022-10-31T02:52:25.732Z,20.57
2022-10-31T02:54:57.417Z,22.03
2022-10-31T02:57:35.815Z,21.50
2022-10-31T03:00:07.178Z,19.60
2022-10-31T03:02:45.722Z,20.60
2022-10-31T03:05:23.854Z,18.20
2022-10-31T03:08:11.903Z,20.40
2022-10-31T03:11:00.293Z,19.97
2022-10-31T03:13:53.126Z,17.00
2022-10-31T03:16:21.282Z,16.97
2022-10-31T03:19:02.770Z,18.67
2022-10-31T03:21:41.609Z,18.63
2022-10-31T03:24:12.329Z,18.17
2022-10-31T03:26:53.928Z,20.20
2022-10-31T03:29:26.588Z,18.63
2022-10-31T03:32:21.781Z,18.80
2022-10-31T03:34:51.043Z,21.30
2022-10-31T03:37:21.801Z,23.17
2022-10-31T03:39:51.284Z,23.53
2022-10-31T03:42:26.760Z,23.93
2022-10-31T03:45:14.611Z,23.13
2022-10-31T03:47:44.656Z,22.60
2022-10-31T03:50:14.344Z,22.00
2022-10-31T03:53:07.422Z,22.70
2022-10-31T03:56:21.685Z,23.47
2022-10-31T03:59:07.954Z,21.37
2022-10-31T04:01:42.424Z,22.87
2022-10-31T04:04:12.004Z,22.83
2022-10-31T04:06:44.273Z,25.07
2022-10-31T04:09:12.253Z,22.50
2022-10-31T04:11:49.878Z,23.33
2022-10-31T04:14:40.354Z,22.47
2022-10-31T04:17:15.978Z,20.63
2022-10-31T04:19:44.339Z,24.33
2022-10-31T04:22:12.102Z,21.30
2022-10-31T04:24:43.321Z,27.07
2022-10-31T04:27:15.738Z,27.57
2022-10-31T04:29:46.909Z,22.60
2022-10-31T04:32:18.944Z,26.33
2022-10-31T04:34:47.557Z,24.80
2022-10-31T04:37:14.861Z,29.00
2022-10-31T04:39:43.122Z,25.67
2022-10-31T04:42:33.459Z,26.13
2022-10-31T04:45:07.384Z,24.87
2022-10-31T04:47:36.489Z,24.10
2022-10-31T04:50:04.973Z,25.50
2022-10-31T04:52:43.748Z,25.57
2022-10-31T04:55:16.024Z,22.93
2022-10-31T04:58:02.078Z,25.00
2022-10-31T05:00:30.850Z,25.23
2022-10-31T05:03:00.302Z,26.87
2022-10-31T05:05:31.447Z,24.73
2022-10-31T05:08:02.689Z,24.77
2022-10-31T05:10:32.615Z,25.27
2022-10-31T05:13:04.512Z,26.63
2022-10-31T05:15:51.124Z,25.30
2022-10-31T05:18:24.130Z,24.20
2022-10-31T05:21:12.350Z,26.57
2022-10-31T05:23:49.527Z,25.27
2022-10-31T05:26:17.959Z,24.70
2022-10-31T05:28:45.666Z,23.43
2022-10-31T05:31:12.988Z,24.43
2022-10-31T05:33:41.265Z,22.00
2022-10-31T05:36:40.870Z,22.73
2022-10-31T05:39:16.133Z,24.23
2022-10-31T05:41:50.049Z,21.93
2022-10-31T05:44:27.100Z,27.70
2022-10-31T05:47:25.369Z,27.13
2022-10-31T05:50:26.594Z,22.07
2022-10-31T05:53:07.011Z,23.03
2022-10-31T05:55:44.312Z,21.87
2022-10-31T05:58:19.568Z,18.93
2022-10-31T06:01:01.867Z,24.27
2022-10-31T06:03:30.789Z,22.47
2022-10-31T06:06:05.012Z,15.50
2022-10-31T06:08:38.333Z,27.00
2022-10-31T06:11:11.781Z,17.73
2022-10-31T06:13:57.602Z,15.17
2022-10-31T06:16:36.028Z,17.07
2022-10-31T06:19:23.658Z,15.23
2022-10-31T06:21:55.492Z,13.97
2022-10-31T06:24:24.249Z,13.53
2022-10-31T06:26:54.584Z,11.57
2022-10-31T06:29:22.479Z,13.73
2022-10-31T06:32:05.895Z,11.77
2022-10-31T06:34:42.331Z,10.20
2022-10-31T06:37:16.996Z,12.80
2022-10-31T06:39:48.467Z,14.83
2022-10-31T06:42:19.167Z,12.00
2022-10-31T06:44:49.321Z,15.00
2022-10-31T06:48:15.605Z,16.70
2022-10-31T06:50:58.602Z,13.20
2022-10-31T06:53:30.905Z,13.40
2022-10-31T06:56:03.721Z,14.30
2022-10-31T06:58:36.004Z,18.10
2022-10-31T07:01:14.271Z,15.80
2022-10-31T07:03:42.263Z,18.20
2022-10-31T07:06:10.462Z,17.90
2022-10-31T07:08:39.583Z,19.90
2022-10-31T07:11:09.988Z,19.17
2022-10-31T07:13:40.400Z,21.53
2022-10-31T07:16:14.759Z,21.93
2022-10-31T07:18:43.539Z,18.80
2022-10-31T07:21:12.333Z,19.70
2022-10-31T07:23:41.663Z,23.13
2022-10-31T07:26:29.204Z,19.73
2022-10-31T07:28:56.892Z,21.53
2022-10-31T07:31:27.151Z,23.33
2022-10-31T07:33:59.617Z,19.40
2022-10-31T07:36:30.826Z,19.53
2022-10-31T07:39:04.216Z,19.70
2022-10-31T07:41:36.250Z,21.47
2022-10-31T07:44:03.479Z,18.67
2022-10-31T07:46:30.848Z,17.60
2022-10-31T07:49:21.630Z,21.17
2022-10-31T07:52:08.611Z,19.57
2022-10-31T07:54:42.842Z,20.43
2022-10-31T07:57:11.168Z,18.60
2022-10-31T07:59:39.401Z,19.73
2022-10-31T08:02:18.058Z,21.87
2022-10-31T08:05:04.597Z,19.93
2022-10-31T08:07:51.703Z,17.70
2022-10-31T08:10:24.035Z,20.13
2022-10-31T08:13:10.913Z,19.43
2022-10-31T08:15:43.380Z,19.57
2022-10-31T08:18:14.684Z,21.27
2022-10-31T08:20:45.691Z,20.37
2022-10-31T08:23:14.595Z,19.73
2022-10-31T08:25:44.448Z,17.10
2022-10-31T08:28:27.540Z,18.87
2022-10-31T08:30:59.328Z,19.97
2022-10-31T08:33:41.613Z,19.23
2022-10-31T08:36:30.591Z,21.37
2022-10-31T08:39:20.431Z,20.70
2022-10-31T08:41:48.692Z,18.60
2022-10-31T08:44:16.858Z,16.30
2022-10-31T08:46:48.735Z,18.30
2022-10-31T08:49:15.991Z,16.30
2022-10-31T08:51:44.652Z,16.70
2022-10-31T08:54:14.009Z,15.17
2022-10-31T08:56:56.797Z,15.03
2022-10-31T08:59:47.490Z,16.30
2022-10-31T09:02:27.861Z,16.27
2022-10-31T09:05:09.707Z,16.70
2022-10-31T09:07:37.624Z,14.90
2022-10-31T09:10:06.206Z,17.20
2022-10-31T09:12:46.991Z,16.20
2022-10-31T09:15:35.869Z,17.83
2022-10-31T09:18:24.323Z,16.23
2022-10-31T09:21:01.994Z,17.03
2022-10-31T09:23:35.451Z,16.90
2022-10-31T09:26:03.800Z,17.43
2022-10-31T09:28:38.098Z,21.20
2022-10-31T09:31:15.758Z,18.60
2022-10-31T09:33:55.910Z,16.03
2022-10-31T09:36:41.484Z,16.97
2022-10-31T09:39:14.404Z,17.63
2022-10-31T09:42:10.375Z,17.70
2022-10-31T09:45:17.356Z,17.10
2022-10-31T09:48:05.976Z,19.10
2022-10-31T09:50:45.098Z,18.63
2022-10-31T09:53:48.208Z,17.60
2022-10-31T09:56:24.529Z,17.80
2022-10-31T09:59:00.776Z,18.77
2022-10-31T10:01:52.703Z,19.17
2022-10-31T10:04:39.145Z,25.67
2022-10-31T10:07:33.799Z,21.03
2022-10-31T10:10:09.741Z,20.73
2022-10-31T10:13:34.885Z,21.20
2022-10-31T10:16:40.066Z,18.67
2022-10-31T10:19:40.483Z,19.10
2022-10-31T10:22:23.689Z,22.80
2022-10-31T10:25:35.592Z,23.23
2022-10-31T10:28:12.083Z,24.90
2022-10-31T10:30:56.931Z,27.20
2022-10-31T10:33:32.664Z,23.77
2022-10-31T10:36:31.824Z,25.43
2022-10-31T10:39:05.645Z,27.57
2022-10-31T10:42:10.133Z,24.67
2022-10-31T10:45:04.120Z,23.83
2022-10-31T10:47:44.991Z,26.00
2022-10-31T10:50:23.839Z,24.63
2022-10-31T10:53:00.871Z,24.77
2022-10-31T10:55:38.317Z,23.63
2022-10-31T10:58:11.350Z,24.63
2022-10-31T11:00:44.388Z,26.27
2022-10-31T11:03:12.034Z,22.80
2022-10-31T11:06:02.933Z,25.00
2022-10-31T11:08:34.755Z,24.40
2022-10-31T11:11:08.246Z,28.00
2022-10-31T11:13:38.281Z,25.20
2022-10-31T11:16:07.508Z,26.63
2022-10-31T11:18:40.442Z,25.33
2022-10-31T11:21:29.777Z,27.00
2022-10-31T11:24:12.299Z,27.97
2022-10-31T11:26:47.554Z,30.17
2022-10-31T11:29:27.160Z,27.07
2022-10-31T11:32:01.623Z,26.87
2022-10-31T11:34:39.547Z,31.10
2022-10-31T11:37:18.096Z,34.63
2022-10-31T11:39:54.531Z,52.70
2022-10-31T11:42:28.370Z,32.90
2022-10-31T11:44:56.850Z,66.13
2022-10-31T11:47:33.783Z,34.27
2022-10-31T11:50:10.687Z,30.73
2022-10-31T11:52:40.336Z,28.63
2022-10-31T11:55:13.678Z,30.20
2022-10-31T11:57:51.420Z,28.53
2022-10-31T12:00:30.979Z,56.03
2022-10-31T12:03:24.447Z,62.97
2022-10-31T12:06:26.161Z,143.50
2022-10-31T12:08:53.583Z,34.47
2022-10-31T12:11:55.165Z,28.00
2022-10-31T12:14:41.150Z,28.80
2022-10-31T12:17:14.281Z,25.50
2022-10-31T12:20:04.464Z,27.30
2022-10-31T12:22:50.234Z,26.00
2022-10-31T12:25:35.340Z,28.90
2022-10-31T12:28:11.590Z,29.27
2022-10-31T12:30:56.868Z,30.87
2022-10-31T12:33:55.763Z,25.87
2022-10-31T12:36:52.192Z,27.27
2022-10-31T12:39:45.220Z,28.43
2022-10-31T12:42:23.245Z,23.77
2022-10-31T12:45:29.239Z,23.40
2022-10-31T12:48:24.379Z,25.27
2022-10-31T12:51:35.179Z,24.90
2022-10-31T12:54:18.384Z,23.50
2022-10-31T12:57:27.448Z,32.07
2022-10-31T13:00:17.042Z,29.00
2022-10-31T13:03:25.011Z,25.87
2022-10-31T13:05:59.557Z,24.03
2022-10-31T13:09:01.412Z,24.43
2022-10-31T13:11:38.061Z,26.80
2022-10-31T13:14:28.361Z,28.60
2022-10-31T13:16:57.377Z,26.93
2022-10-31T13:19:32.830Z,46.23
2022-10-31T13:22:05.873Z,45.80
2022-10-31T13:24:48.304Z,33.00
2022-10-31T13:27:32.269Z,43.70
2022-10-31T13:30:05.387Z,35.43
2022-10-31T13:32:53.890Z,56.10
2022-10-31T13:35:56.484Z,68.97
2022-10-31T13:38:36.039Z,33.83
2022-10-31T13:41:12.573Z,27.53
2022-10-31T13:44:09.465Z,34.70
2022-10-31T13:46:40.853Z,28.37
2022-10-31T13:49:30.864Z,26.40
2022-10-31T13:52:07.472Z,27.60
2022-10-31T13:54:38.838Z,25.27
2022-10-31T13:57:34.889Z,26.00
2022-10-31T14:00:24.172Z,26.80
2022-10-31T14:02:58.562Z,26.50
2022-10-31T14:05:36.932Z,107.10
2022-10-31T14:08:07.000Z,149.70
2022-10-31T14:10:38.239Z,43.67
2022-10-31T14:13:29.288Z,28.17
2022-10-31T14:16:21.869Z,23.83
2022-10-31T14:19:03.864Z,28.83
2022-10-31T14:21:38.677Z,30.20
2022-10-31T14:24:15.390Z,31.33
2022-10-31T14:26:56.793Z,23.53
2022-10-31T14:29:30.389Z,28.33
2022-10-31T14:32:13.822Z,29.50
2022-10-31T14:34:57.439Z,26.60
2022-10-31T14:37:57.798Z,30.33
2022-10-31T14:41:16.303Z,27.37
2022-10-31T14:44:12.880Z,24.73
2022-10-31T14:47:20.842Z,24.37
2022-10-31T14:49:58.204Z,25.63
2022-10-31T14:52:25.641Z,24.60
2022-10-31T14:54:57.822Z,26.17
2022-10-31T14:57:27.748Z,27.83
2022-10-31T15:00:03.957Z,25.73
2022-10-31T15:02:41.581Z,26.27
2022-10-31T15:05:11.532Z,25.77
2022-10-31T15:07:52.184Z,26.87
2022-10-31T15:10:33.283Z,32.07
2022-10-31T15:13:19.050Z,27.20
2022-10-31T15:15:52.081Z,26.43
2022-10-31T15:18:26.943Z,29.20
2022-10-31T15:20:56.613Z,37.43
2022-10-31T15:23:31.569Z,32.50
2022-10-31T15:26:06.237Z,34.03
2022-10-31T15:28:34.492Z,30.07
2022-10-31T15:31:04.325Z,32.60
2022-10-31T15:33:46.984Z,32.47
2022-10-31T15:36:24.118Z,31.77
2022-10-31T15:38:58.543Z,35.83
2022-10-31T15:41:55.255Z,39.70
2022-10-31T15:44:36.702Z,38.33
2022-10-31T15:47:17.030Z,38.60
2022-10-31T15:49:56.125Z,44.67
2022-10-31T15:52:49.296Z,49.40
2022-10-31T15:55:25.874Z,50.80
2022-10-31T15:58:11.378Z,52.10
2022-10-31T16:00:39.988Z,62.43
2022-10-31T16:03:31.128Z,64.00
2022-10-31T16:06:05.675Z,58.63
2022-10-31T16:08:53.773Z,69.43
2022-10-31T16:11:36.191Z,70.67
2022-10-31T16:14:33.301Z,68.37
2022-10-31T16:17:03.141Z,68.93
2022-10-31T16:19:33.030Z,71.77
2022-10-31T16:22:13.209Z,66.97
2022-10-31T16:25:23.974Z,80.77
2022-10-31T16:27:58.552Z,66.57
2022-10-31T16:30:48.529Z,59.47
2022-10-31T16:33:31.966Z,70.23
2022-10-31T16:36:36.332Z,58.93
2022-10-31T16:39:04.841Z,54.53
2022-10-31T16:41:56.018Z,55.87
2022-10-31T16:44:28.299Z,60.57
2022-10-31T16:47:11.303Z,52.87
2022-10-31T16:49:39.880Z,48.83
2022-10-31T16:52:07.271Z,53.23
2022-10-31T16:54:35.534Z,54.27
2022-10-31T16:57:05.210Z,53.20
2022-10-31T16:59:34.742Z,52.50
2022-10-31T17:02:04.813Z,46.43
2022-10-31T17:04:33.482Z,49.53
2022-10-31T17:07:01.817Z,48.27
2022-10-31T17:09:30.069Z,50.67
2022-10-31T17:12:03.048Z,43.67
2022-10-31T17:14:33.082Z,44.00
2022-10-31T17:17:06.270Z,46.93
2022-10-31T17:19:35.134Z,43.80
2022-10-31T17:22:03.219Z,45.53
2022-10-31T17:24:31.480Z,45.73
2022-10-31T17:27:00.768Z,44.70
2022-10-31T17:29:28.066Z,39.03
2022-10-31T17:31:55.230Z,29.40
2022-10-31T17:34:25.760Z,31.27
2022-10-31T17:36:54.370Z,25.17
2022-10-31T17:39:23.246Z,23.50
2022-10-31T17:41:58.529Z,21.33
2022-10-31T17:44:27.923Z,23.40
2022-10-31T17:46:55.127Z,26.80
2022-10-31T17:49:27.487Z,26.27
2022-10-31T17:51:55.797Z,28.90
2022-10-31T17:54:24.038Z,28.73
2022-10-31T17:56:54.615Z,24.17
2022-10-31T17:59:22.324Z,25.17
2022-10-31T18:01:49.636Z,27.17
2022-10-31T18:04:25.347Z,27.07
2022-10-31T18:06:52.595Z,22.70
2022-10-31T18:09:21.817Z,29.07
2022-10-31T18:11:51.022Z,28.13
2022-10-31T18:14:19.151Z,30.60
2022-10-31T18:16:52.628Z,32.60
2022-10-31T18:19:20.074Z,29.87
2022-10-31T18:21:47.358Z,29.27
2022-10-31T18:24:14.518Z,27.37
2022-10-31T18:26:42.770Z,27.70
2022-10-31T18:29:11.742Z,32.63
2022-10-31T18:31:39.073Z,35.57
2022-10-31T18:34:07.234Z,36.97
2022-10-31T18:36:38.437Z,38.87
2022-10-31T18:39:05.710Z,37.60
2022-10-31T18:41:35.676Z,43.57
2022-10-31T18:44:02.889Z,44.83
2022-10-31T18:46:31.657Z,34.43
2022-10-31T18:49:03.524Z,36.77
2022-10-31T18:51:31.783Z,40.63
2022-10-31T18:54:03.300Z,41.50
2022-10-31T18:56:45.254Z,41.67
2022-10-31T18:59:14.493Z,54.40
2022-10-31T19:01:57.950Z,57.70
2022-10-31T19:04:29.841Z,61.37
2022-10-31T19:07:04.208Z,60.93
2022-10-31T19:09:34.555Z,51.77
2022-10-31T19:12:03.246Z,56.07
2022-10-31T19:14:35.153Z,47.77
2022-10-31T19:17:03.382Z,50.27
2022-10-31T19:19:32.191Z,48.50
2022-10-31T19:22:02.113Z,50.47
2022-10-31T19:24:31.573Z,52.93
2022-10-31T19:27:00.808Z,49.70
2022-10-31T19:29:32.824Z,57.67
2022-10-31T19:32:07.193Z,48.20
2022-10-31T19:34:35.609Z,47.60
2022-10-31T19:37:08.730Z,44.70
2022-10-31T19:39:39.827Z,52.53
2022-10-31T19:42:17.694Z,46.30
2022-10-31T19:44:46.072Z,52.53
2022-10-31T19:47:16.279Z,51.30
2022-10-31T19:49:43.509Z,46.17
2022-10-31T19:52:10.849Z,51.90
2022-10-31T19:54:39.416Z,45.23
2022-10-31T19:57:06.630Z,44.80
2022-10-31T19:59:38.970Z,46.33
2022-10-31T20:02:07.856Z,50.13
2022-10-31T20:04:37.055Z,46.57
2022-10-31T20:07:04.391Z,40.93
2022-10-31T20:09:50.160Z,35.27
2022-10-31T20:12:18.659Z,35.87
2022-10-31T20:14:50.881Z,38.90
2022-10-31T20:17:19.131Z,37.57
2022-10-31T20:20:08.960Z,37.77
2022-10-31T20:22:38.880Z,37.90
2022-10-31T20:25:08.449Z,36.50
2022-10-31T20:27:35.650Z,33.10
2022-10-31T20:30:04.209Z,38.53
2022-10-31T20:32:32.468Z,32.27
2022-10-31T20:34:59.630Z,35.20
2022-10-31T20:37:29.999Z,40.53
2022-10-31T20:39:58.398Z,33.47
2022-10-31T20:42:26.628Z,40.00
2022-10-31T20:45:07.639Z,32.03
2022-10-31T20:47:37.980Z,30.50
2022-10-31T20:50:06.989Z,35.63
2022-10-31T20:52:34.729Z,38.37
2022-10-31T20:55:03.990Z,33.53
2022-10-31T20:57:33.353Z,36.50
2022-10-31T21:00:00.969Z,36.27
2022-10-31T21:02:30.225Z,35.20
2022-10-31T21:04:59.500Z,38.70
2022-10-31T21:07:32.209Z,34.57
2022-10-31T21:10:00.568Z,35.43
2022-10-31T21:12:39.480Z,37.77
2022-10-31T21:15:07.190Z,31.63
2022-10-31T21:17:38.520Z,35.93
2022-10-31T21:20:08.198Z,32.33
2022-10-31T21:22:35.479Z,32.80
2022-10-31T21:25:03.703Z,35.40
2022-10-31T21:27:32.678Z,35.27
2022-10-31T21:30:01.567Z,30.83
2022-10-31T21:32:29.735Z,36.67
2022-10-31T21:35:04.996Z,34.00
2022-10-31T21:37:32.214Z,37.20
2022-10-31T21:39:59.500Z,37.10
2022-10-31T21:42:31.613Z,36.17
2022-10-31T21:44:58.771Z,34.97
2022-10-31T21:47:27.897Z,32.77
2022-10-31T21:49:55.196Z,44.77
2022-10-31T21:52:25.930Z,37.07
2022-10-31T21:54:53.121Z,36.67
2022-10-31T22:00:13.670Z,28.77
2022-10-31T22:02:41.912Z,29.03
2022-10-31T22:05:10.396Z,26.43
2022-10-31T22:07:37.721Z,29.63
2022-10-31T22:10:06.259Z,30.93
2022-10-31T22:12:35.445Z,30.97
2022-10-31T22:15:02.611Z,31.10
2022-10-31T22:17:34.830Z,32.70
2022-10-31T22:20:03.307Z,32.70
2022-10-31T22:22:30.451Z,29.97
2022-10-31T22:24:57.672Z,30.63
2022-10-31T22:27:24.796Z,32.83
2022-10-31T22:29:56.543Z,27.70
2022-10-31T22:32:27.489Z,31.93
2022-10-31T22:34:55.905Z,35.13
2022-10-31T22:37:24.475Z,40.60
2022-10-31T22:39:57.819Z,38.67
2022-10-31T22:42:29.105Z,32.70
2022-10-31T22:44:57.282Z,36.27
2022-10-31T22:47:32.508Z,30.33
2022-10-31T22:49:59.770Z,32.33
2022-10-31T22:52:34.063Z,29.50
2022-10-31T22:55:03.392Z,24.93
2022-10-31T22:57:30.501Z,24.20
2022-10-31T22:59:57.730Z,29.20
2022-10-31T23:02:29.914Z,29.27
2022-10-31T23:04:58.148Z,25.10
2022-10-31T23:07:29.475Z,24.87
2022-10-31T23:10:06.039Z,27.23
2022-10-31T23:12:52.580Z,24.97
2022-10-31T23:15:19.798Z,25.17
2022-10-31T23:17:47.950Z,20.03
2022-10-31T23:20:15.156Z,22.43
2022-10-31T23:22:46.389Z,22.30
2022-10-31T23:25:33.479Z,22.03
2022-10-31T23:28:00.781Z,20.53
2022-10-31T23:30:30.946Z,22.57
2022-10-31T23:32:58.121Z,19.37
2022-10-31T23:35:28.390Z,17.77
2022-10-31T23:37:56.705Z,16.40
2022-10-31T23:40:24.881Z,20.33
2022-10-31T23:42:52.188Z,17.27
2022-10-31T23:45:19.380Z,15.63
2022-10-31T23:47:46.618Z,21.80
2022-10-31T23:50:13.914Z,19.00
2022-10-31T23:52:42.067Z,17.87
2022-10-31T23:55:09.611Z,18.20
2022-10-31T23:57:45.282Z,20.43
